createdAt,value
2022-09-26T00:01:32.426Z,28.30
2022-09-26T00:04:09.357Z,28.40
2022-09-26T00:06:36.746Z,28.80
2022-09-26T00:09:03.800Z,29.00
2022-09-26T00:11:33.874Z,28.70
2022-09-26T00:14:05.863Z,28.70
2022-09-26T00:16:33.043Z,28.60
2022-09-26T00:19:00.553Z,28.70
2022-09-26T00:21:29.898Z,28.90
2022-09-26T00:23:58.441Z,28.80
2022-09-26T00:26:27.489Z,28.50
2022-09-26T00:28:55.434Z,29.00
2022-09-26T00:31:32.942Z,29.10
2022-09-26T00:34:00.350Z,29.00
2022-09-26T00:36:37.649Z,28.60
2022-09-26T00:39:06.666Z,28.60
2022-09-26T00:41:33.954Z,28.40
2022-09-26T00:44:03.347Z,28.20
2022-09-26T00:46:47.902Z,27.90
2022-09-26T00:49:31.623Z,28.00
2022-09-26T00:52:24.072Z,28.00
2022-09-26T00:54:55.501Z,28.50
2022-09-26T00:57:42.335Z,28.70
2022-09-26T01:00:12.104Z,28.90
2022-09-26T01:02:40.071Z,29.30
2022-09-26T01:05:08.913Z,29.40
2022-09-26T01:07:36.123Z,29.50
2022-09-26T01:10:07.315Z,29.50
2022-09-26T01:12:36.631Z,29.30
2022-09-26T01:15:05.467Z,28.90
2022-09-26T01:17:32.417Z,28.90
2022-09-26T01:20:43.394Z,29.00
2022-09-26T01:23:42.051Z,28.60
2022-09-26T01:26:12.273Z,28.90
2022-09-26T01:29:06.037Z,29.40
2022-09-26T01:32:16.632Z,29.60
2022-09-26T01:35:01.261Z,29.90
2022-09-26T01:38:00.230Z,29.90
2022-09-26T01:40:51.058Z,29.50
2022-09-26T01:43:47.047Z,29.60
2022-09-26T01:46:46.846Z,30.30
2022-09-26T01:49:13.761Z,29.90
2022-09-26T01:51:56.887Z,29.50
2022-09-26T01:54:34.735Z,29.80
2022-09-26T01:57:05.160Z,30.00
2022-09-26T01:59:44.153Z,29.80
2022-09-26T02:02:26.776Z,29.90
2022-09-26T02:05:03.116Z,29.90
2022-09-26T02:07:38.053Z,29.70
2022-09-26T02:10:18.793Z,29.40
2022-09-26T02:12:55.126Z,29.80
2022-09-26T02:15:25.881Z,29.80
2022-09-26T02:18:03.512Z,30.40
2022-09-26T02:20:37.989Z,30.80
2022-09-26T02:23:05.403Z,30.20
2022-09-26T02:25:33.217Z,30.00
2022-09-26T02:28:00.446Z,29.80
2022-09-26T02:30:27.668Z,29.40
2022-09-26T02:32:54.772Z,29.30
2022-09-26T02:35:41.293Z,29.60
2022-09-26T02:38:08.227Z,28.60
2022-09-26T02:40:51.372Z,28.60
2022-09-26T02:43:33.143Z,28.60
2022-09-26T02:46:12.365Z,29.10
2022-09-26T02:48:54.241Z,29.30
2022-09-26T02:51:58.193Z,29.20
2022-09-26T02:54:46.603Z,29.60
2022-09-26T02:57:33.966Z,29.60
2022-09-26T03:00:10.025Z,29.50
2022-09-26T03:02:46.257Z,30.00
2022-09-26T03:05:19.126Z,30.30
2022-09-26T03:08:01.166Z,30.90
2022-09-26T03:10:30.748Z,29.60
2022-09-26T03:13:04.095Z,28.80
2022-09-26T03:15:34.607Z,28.90
2022-09-26T03:18:05.644Z,28.50
2022-09-26T03:20:32.692Z,28.40
2022-09-26T03:22:59.795Z,28.30
2022-09-26T03:25:28.334Z,28.50
2022-09-26T03:27:55.956Z,28.40
2022-09-26T03:30:23.823Z,28.40
2022-09-26T03:32:51.233Z,28.50
2022-09-26T03:35:18.212Z,28.40
2022-09-26T03:37:45.107Z,28.20
2022-09-26T03:40:13.895Z,28.10
2022-09-26T03:42:41.635Z,28.30
2022-09-26T03:45:10.691Z,29.00
2022-09-26T03:47:42.059Z,29.10
2022-09-26T03:50:09.604Z,29.40
2022-09-26T03:52:36.746Z,29.70
2022-09-26T03:55:05.193Z,29.60
2022-09-26T03:57:32.086Z,29.90
2022-09-26T03:59:58.994Z,29.30
2022-09-26T04:02:26.010Z,29.10
2022-09-26T04:04:53.464Z,29.20
2022-09-26T04:07:20.436Z,28.90
2022-09-26T04:09:47.442Z,28.80
2022-09-26T04:12:14.792Z,29.20
2022-09-26T04:14:43.582Z,29.50
2022-09-26T04:17:10.872Z,29.30
2022-09-26T04:19:37.856Z,29.50
2022-09-26T04:22:05.485Z,30.00
2022-09-26T04:24:33.464Z,29.90
2022-09-26T04:27:01.082Z,30.00
2022-09-26T04:29:29.211Z,30.00
2022-09-26T04:31:56.868Z,30.00
2022-09-26T04:34:27.179Z,30.10
2022-09-26T04:36:54.633Z,30.10
2022-09-26T04:39:21.866Z,30.20
2022-09-26T04:41:48.812Z,30.00
2022-09-26T04:44:16.024Z,29.90
2022-09-26T04:46:42.981Z,29.80
2022-09-26T04:49:10.034Z,29.50
2022-09-26T04:51:38.645Z,29.60
2022-09-26T04:54:05.792Z,29.90
2022-09-26T04:56:33.332Z,29.90
2022-09-26T04:59:01.724Z,30.70
2022-09-26T05:01:28.750Z,30.30
2022-09-26T05:03:58.546Z,30.10
2022-09-26T05:06:25.707Z,30.30
2022-09-26T05:08:52.644Z,30.60
2022-09-26T05:11:22.093Z,30.90
2022-09-26T05:13:54.062Z,30.00
2022-09-26T05:16:21.303Z,30.80
2022-09-26T05:18:52.268Z,31.50
2022-09-26T05:21:19.994Z,31.80
2022-09-26T05:24:05.708Z,32.10
2022-09-26T05:26:38.605Z,31.40
2022-09-26T05:29:08.910Z,31.60
2022-09-26T05:31:38.061Z,31.60
2022-09-26T05:34:17.060Z,31.50
2022-09-26T05:36:47.807Z,30.80
2022-09-26T05:39:33.421Z,30.30
2022-09-26T05:42:00.605Z,30.10
2022-09-26T05:44:28.643Z,30.80
2022-09-26T05:46:57.486Z,31.10
2022-09-26T05:49:25.794Z,30.80
2022-09-26T05:51:53.963Z,30.60
2022-09-26T05:54:21.001Z,30.30
2022-09-26T05:56:48.596Z,30.40
2022-09-26T05:59:15.701Z,30.50
2022-09-26T06:01:42.843Z,30.40
2022-09-26T06:04:10.569Z,30.50
2022-09-26T06:06:38.928Z,30.40
2022-09-26T06:09:07.471Z,30.10
2022-09-26T06:11:34.861Z,30.00
2022-09-26T06:14:01.970Z,29.50
2022-09-26T06:16:29.690Z,29.40
2022-09-26T06:18:57.376Z,29.50
2022-09-26T06:21:24.501Z,29.50
2022-09-26T06:23:51.664Z,29.30
2022-09-26T06:26:23.906Z,28.50
2022-09-26T06:29:00.590Z,28.20
2022-09-26T06:31:29.103Z,27.60
2022-09-26T06:33:56.584Z,27.30
2022-09-26T06:36:24.284Z,27.30
2022-09-26T06:38:52.160Z,27.30
2022-09-26T06:41:19.859Z,27.00
2022-09-26T06:43:47.601Z,27.10
2022-09-26T06:46:16.229Z,26.90
2022-09-26T06:48:43.686Z,26.50
2022-09-26T06:51:14.067Z,26.50
2022-09-26T06:53:41.371Z,26.20
2022-09-26T06:56:08.382Z,26.70
2022-09-26T06:58:35.573Z,26.50
2022-09-26T07:01:03.157Z,26.10
2022-09-26T07:03:30.665Z,26.40
2022-09-26T07:05:58.079Z,26.40
2022-09-26T07:08:49.959Z,25.90
2022-09-26T07:14:02.439Z,25.20
2022-09-26T07:16:30.539Z,25.30
2022-09-26T07:18:57.900Z,25.40
2022-09-26T07:21:24.961Z,25.30
2022-09-26T07:23:56.764Z,25.80
2022-09-26T07:26:23.750Z,24.90
2022-09-26T07:28:54.478Z,25.30
2022-09-26T07:31:25.121Z,25.50
2022-09-26T07:33:52.943Z,25.80
2022-09-26T07:36:21.207Z,25.80
2022-09-26T07:38:49.499Z,25.90
2022-09-26T07:41:17.594Z,25.60
2022-09-26T07:46:50.553Z,24.70
2022-09-26T07:49:36.251Z,24.30
2022-09-26T07:52:03.200Z,24.50
2022-09-26T07:54:30.123Z,24.90
2022-09-26T07:56:57.255Z,24.60
2022-09-26T07:59:24.202Z,24.00
2022-09-26T08:01:52.961Z,23.80
2022-09-26T08:04:20.101Z,23.20
2022-09-26T08:06:50.280Z,23.40
2022-09-26T08:09:17.286Z,22.80
2022-09-26T08:11:44.547Z,22.60
2022-09-26T08:14:11.929Z,22.90
2022-09-26T08:16:42.050Z,22.50
2022-09-26T08:19:10.877Z,22.50
2022-09-26T08:21:37.804Z,22.60
2022-09-26T08:24:04.721Z,22.50
2022-09-26T08:26:31.690Z,22.50
2022-09-26T08:29:00.278Z,22.30
2022-09-26T08:31:28.481Z,22.00
2022-09-26T08:33:55.508Z,22.20
2022-09-26T08:36:22.399Z,22.90
2022-09-26T08:38:52.654Z,22.80
2022-09-26T08:41:59.725Z,22.40
2022-09-26T08:44:44.090Z,23.00
2022-09-26T08:47:43.901Z,22.30
2022-09-26T08:50:33.477Z,22.20
2022-09-26T08:53:29.270Z,22.50
2022-09-26T08:55:58.471Z,22.20
2022-09-26T08:58:52.110Z,21.80
2022-09-26T09:01:35.683Z,22.20
2022-09-26T09:04:10.791Z,21.40
2022-09-26T09:06:38.376Z,21.90
2022-09-26T09:09:06.505Z,21.60
2022-09-26T09:12:14.522Z,21.70
2022-09-26T09:15:24.803Z,21.30
2022-09-26T09:17:55.775Z,21.10
2022-09-26T09:20:56.423Z,20.90
2022-09-26T09:23:47.081Z,21.20
2022-09-26T09:29:19.503Z,21.20
2022-09-26T09:31:47.619Z,21.30
2022-09-26T09:34:42.630Z,21.60
2022-09-26T09:37:19.202Z,21.90
2022-09-26T09:39:49.255Z,22.20
2022-09-26T09:42:28.094Z,22.70
2022-09-26T09:45:04.830Z,22.10
2022-09-26T09:47:37.418Z,22.00
2022-09-26T09:50:47.490Z,22.30
2022-09-26T09:53:33.686Z,22.00
2022-09-26T09:56:20.107Z,21.10
2022-09-26T09:59:03.843Z,21.30
2022-09-26T10:01:41.658Z,21.40
2022-09-26T10:04:08.558Z,21.80
2022-09-26T10:06:46.067Z,22.30
2022-09-26T10:09:39.477Z,21.60
2022-09-26T10:12:19.278Z,21.30
2022-09-26T10:15:11.832Z,20.90
2022-09-26T10:17:39.686Z,21.80
2022-09-26T10:20:17.485Z,22.00
2022-09-26T10:22:45.572Z,23.10
2022-09-26T10:25:22.988Z,22.80
2022-09-26T10:27:55.574Z,22.80
2022-09-26T10:30:33.189Z,21.80
2022-09-26T10:33:02.335Z,21.80
2022-09-26T10:35:46.145Z,21.00
2022-09-26T10:38:23.336Z,20.90
2022-09-26T10:40:55.616Z,21.00
2022-09-26T10:43:30.964Z,21.20
2022-09-26T10:46:24.190Z,21.60
2022-09-26T10:48:58.329Z,22.10
2022-09-26T10:51:43.761Z,22.30
2022-09-26T10:54:19.831Z,22.50
2022-09-26T10:56:51.241Z,22.90
2022-09-26T10:59:25.993Z,22.80
2022-09-26T11:02:05.109Z,23.10
2022-09-26T11:04:54.483Z,22.70
2022-09-26T11:07:26.572Z,22.30
2022-09-26T11:10:00.662Z,22.30
2022-09-26T11:12:37.605Z,22.60
2022-09-26T11:15:12.436Z,21.90
2022-09-26T11:17:48.519Z,21.80
2022-09-26T11:20:51.178Z,22.10
2022-09-26T11:23:41.865Z,22.70
2022-09-26T11:26:35.043Z,22.40
2022-09-26T11:29:37.681Z,22.70
2022-09-26T11:32:07.265Z,22.60
2022-09-26T11:34:36.741Z,22.00
2022-09-26T11:37:06.429Z,21.90
2022-09-26T11:40:09.282Z,21.90
2022-09-26T11:43:08.814Z,21.70
2022-09-26T11:46:15.560Z,21.80
2022-09-26T11:48:42.480Z,21.40
2022-09-26T11:51:36.133Z,21.60
2022-09-26T11:54:23.839Z,21.50
2022-09-26T11:56:58.895Z,20.90
2022-09-26T11:59:40.822Z,21.00
2022-09-26T12:02:10.417Z,21.20
2022-09-26T12:04:57.169Z,20.90
2022-09-26T12:07:43.951Z,21.30
2022-09-26T12:10:29.434Z,22.10
2022-09-26T12:13:08.274Z,21.50
2022-09-26T12:15:56.523Z,21.90
2022-09-26T12:18:46.738Z,22.60
2022-09-26T12:21:31.721Z,23.40
2022-09-26T12:24:19.094Z,24.40
2022-09-26T12:27:04.900Z,24.30
2022-09-26T12:29:55.918Z,24.10
2022-09-26T12:32:34.185Z,24.00
2022-09-26T12:35:20.061Z,24.20
2022-09-26T12:38:08.385Z,24.90
2022-09-26T12:41:20.323Z,24.40
2022-09-26T12:44:14.239Z,24.70
2022-09-26T12:46:53.590Z,25.00
2022-09-26T12:49:47.939Z,24.10
2022-09-26T12:52:27.581Z,23.30
2022-09-26T12:55:26.932Z,23.40
2022-09-26T12:58:13.005Z,23.00
2022-09-26T13:01:17.363Z,22.60
2022-09-26T13:04:23.786Z,23.20
2022-09-26T13:07:19.449Z,24.00
2022-09-26T13:10:11.934Z,23.70
2022-09-26T13:13:00.105Z,23.50
2022-09-26T13:16:06.786Z,22.50
2022-09-26T13:18:45.582Z,22.10
2022-09-26T13:21:32.244Z,22.00
2022-09-26T13:24:08.922Z,21.40
2022-09-26T13:26:43.920Z,21.50
2022-09-26T13:29:18.445Z,21.80
2022-09-26T13:32:23.257Z,21.60
2022-09-26T13:35:16.978Z,21.70
2022-09-26T13:38:22.991Z,22.20
2022-09-26T13:40:58.080Z,22.40
2022-09-26T13:43:53.668Z,22.70
2022-09-26T13:46:40.078Z,23.10
2022-09-26T13:49:32.069Z,23.10
2022-09-26T13:52:20.297Z,23.30
2022-09-26T13:54:58.218Z,23.90
2022-09-26T13:58:04.303Z,23.70
2022-09-26T14:00:31.563Z,24.40
2022-09-26T14:03:11.146Z,24.60
2022-09-26T14:05:44.301Z,24.40
2022-09-26T14:08:53.663Z,24.80
2022-09-26T14:11:42.571Z,24.40
2022-09-26T14:14:18.905Z,24.10
2022-09-26T14:16:53.092Z,23.50
2022-09-26T14:19:36.992Z,24.10
2022-09-26T14:22:34.683Z,24.20
2022-09-26T14:25:02.642Z,24.60
2022-09-26T14:27:36.522Z,24.50
2022-09-26T14:30:24.026Z,24.70
2022-09-26T14:32:54.289Z,24.70
2022-09-26T14:35:27.705Z,25.10
2022-09-26T14:38:20.672Z,24.80
2022-09-26T14:40:58.667Z,24.50
2022-09-26T14:43:30.339Z,24.00
2022-09-26T14:46:17.938Z,24.30
2022-09-26T14:48:46.206Z,24.20
2022-09-26T14:51:16.505Z,24.00
2022-09-26T14:53:53.085Z,23.60
2022-09-26T14:56:27.516Z,23.90
2022-09-26T14:59:14.765Z,24.50
2022-09-26T15:01:43.728Z,24.30
2022-09-26T15:04:20.579Z,24.20
2022-09-26T15:06:52.941Z,23.90
2022-09-26T15:09:29.014Z,23.40
2022-09-26T15:12:00.047Z,23.60
2022-09-26T15:14:37.675Z,24.00
2022-09-26T15:17:06.218Z,23.30
2022-09-26T15:19:38.575Z,23.20
2022-09-26T15:22:15.718Z,23.10
2022-09-26T15:24:42.680Z,23.90
2022-09-26T15:27:27.554Z,23.70
2022-09-26T15:30:11.237Z,23.90
2022-09-26T15:32:38.923Z,24.00
2022-09-26T15:35:06.464Z,24.10
2022-09-26T15:37:36.233Z,24.50
2022-09-26T15:40:16.459Z,24.80
2022-09-26T15:42:58.855Z,24.80
2022-09-26T15:45:30.747Z,25.10
2022-09-26T15:48:04.964Z,24.70
2022-09-26T15:50:43.753Z,25.00
2022-09-26T15:53:30.802Z,24.80
2022-09-26T15:56:10.286Z,25.00
2022-09-26T15:58:40.374Z,25.10
2022-09-26T16:01:15.142Z,25.10
2022-09-26T16:03:47.053Z,25.20
2022-09-26T16:06:28.027Z,25.20
2022-09-26T16:09:23.293Z,25.60
2022-09-26T16:11:56.400Z,25.90
2022-09-26T16:14:26.769Z,26.20
2022-09-26T16:17:00.798Z,26.30
2022-09-26T16:19:32.146Z,26.20
2022-09-26T16:22:19.150Z,26.00
2022-09-26T16:24:46.125Z,25.70
2022-09-26T16:27:34.201Z,25.60
2022-09-26T16:30:04.920Z,25.80
2022-09-26T16:32:35.353Z,25.70
2022-09-26T16:35:17.612Z,26.00
2022-09-26T16:37:46.781Z,25.60
2022-09-26T16:40:20.408Z,25.60
2022-09-26T16:42:47.542Z,25.50
2022-09-26T16:45:15.414Z,24.90
2022-09-26T16:47:44.760Z,25.20
2022-09-26T16:50:43.879Z,25.30
2022-09-26T16:53:11.469Z,25.40
2022-09-26T16:55:38.807Z,25.20
2022-09-26T16:58:06.360Z,25.40
2022-09-26T17:00:53.674Z,25.10
2022-09-26T17:03:29.690Z,25.10
2022-09-26T17:05:58.254Z,25.30
2022-09-26T17:08:26.723Z,25.30
2022-09-26T17:10:58.112Z,25.50
2022-09-26T17:13:27.407Z,25.80
2022-09-26T17:16:02.190Z,25.70
2022-09-26T17:18:32.564Z,25.70
2022-09-26T17:20:59.955Z,25.50
2022-09-26T17:23:39.937Z,25.60
2022-09-26T17:26:12.435Z,25.50
2022-09-26T17:28:44.924Z,25.70
2022-09-26T17:31:20.437Z,25.70
2022-09-26T17:33:51.317Z,26.20
2022-09-26T17:36:22.567Z,26.20
2022-09-26T17:38:50.492Z,26.10
2022-09-26T17:41:17.654Z,26.10
2022-09-26T17:43:45.708Z,25.70
2022-09-26T17:46:16.161Z,25.60
2022-09-26T17:48:44.503Z,25.20
2022-09-26T17:51:14.997Z,25.50
2022-09-26T17:53:50.115Z,25.40
2022-09-26T17:56:21.638Z,25.80
2022-09-26T17:58:49.805Z,25.70
2022-09-26T18:01:28.083Z,25.90
2022-09-26T18:04:00.356Z,26.20
2022-09-26T18:06:31.575Z,26.10
2022-09-26T18:09:06.387Z,26.50
2022-09-26T18:11:40.635Z,27.00
2022-09-26T18:14:14.528Z,27.00
2022-09-26T18:16:46.712Z,26.70
2022-09-26T18:19:13.664Z,26.80
2022-09-26T18:21:40.997Z,27.40
2022-09-26T18:24:19.295Z,27.30
2022-09-26T18:26:51.477Z,27.00
2022-09-26T18:29:28.289Z,26.90
2022-09-26T19:57:24.738Z,26.60
2022-09-26T19:59:55.908Z,27.10
2022-09-26T20:11:13.656Z,27.20
2022-09-26T20:13:59.318Z,27.50
2022-09-26T20:16:26.825Z,27.90
2022-09-26T20:18:55.866Z,27.40
2022-09-26T20:21:29.347Z,27.50
2022-09-26T20:24:06.148Z,27.10
2022-09-26T20:26:34.031Z,27.70
2022-09-26T20:29:00.962Z,27.70
2022-09-26T20:31:29.057Z,27.70
2022-09-26T20:34:00.758Z,28.00
2022-09-26T20:36:31.337Z,27.70
2022-09-26T20:39:05.688Z,28.00
2022-09-26T20:41:37.660Z,28.10
2022-09-26T20:44:24.613Z,27.70
2022-09-26T20:46:56.385Z,27.80
2022-09-26T20:52:27.345Z,28.00
2022-09-26T20:54:55.518Z,28.10
2022-09-26T20:57:25.045Z,28.40
2022-09-26T20:59:52.290Z,28.80
2022-09-26T21:02:29.898Z,28.90
2022-09-26T21:04:57.708Z,28.40
2022-09-26T21:07:29.001Z,28.60
2022-09-26T21:09:55.965Z,29.00
2022-09-26T21:12:23.420Z,29.50
2022-09-26T21:14:52.502Z,29.70
2022-09-26T21:17:27.382Z,29.40
2022-09-26T21:19:55.672Z,29.20
2022-09-26T21:22:29.967Z,28.60
2022-09-26T21:24:57.576Z,28.60
2022-09-26T21:27:27.422Z,28.50
2022-09-26T21:29:57.234Z,28.70
2022-09-26T21:32:25.858Z,29.10
2022-09-26T21:35:03.726Z,29.00
2022-09-26T21:37:31.216Z,28.50
2022-09-26T21:40:00.445Z,28.80
2022-09-26T21:42:29.350Z,29.20
2022-09-26T21:45:06.382Z,28.70
2022-09-26T21:47:36.675Z,28.90
2022-09-26T21:50:08.469Z,28.70
2022-09-26T21:52:42.573Z,28.80
2022-09-26T21:55:13.847Z,29.50
2022-09-26T21:57:43.635Z,29.30
2022-09-26T22:00:12.549Z,29.00
2022-09-26T22:02:41.279Z,28.40
2022-09-26T22:05:10.401Z,28.30
2022-09-26T22:07:37.856Z,28.50
2022-09-26T22:10:06.338Z,28.60
2022-09-26T22:12:33.672Z,28.70
2022-09-26T22:15:00.931Z,28.60
2022-09-26T22:17:28.857Z,28.40
2022-09-26T22:19:55.899Z,28.20
2022-09-26T22:22:23.128Z,28.20
2022-09-26T22:24:50.246Z,28.60
2022-09-26T22:27:17.468Z,28.20
2022-09-26T22:29:44.636Z,27.70
2022-09-26T22:32:11.817Z,28.00
2022-09-26T22:34:38.756Z,27.50
2022-09-26T22:37:06.256Z,28.10
2022-09-26T22:39:33.183Z,28.40
2022-09-26T22:42:00.130Z,28.50
2022-09-26T22:44:27.073Z,28.70
2022-09-26T22:46:54.072Z,28.40
2022-09-26T22:49:21.092Z,28.20
2022-09-26T22:51:48.236Z,27.90
2022-09-26T22:54:15.334Z,28.10
2022-09-26T22:56:42.487Z,28.30
2022-09-26T22:59:10.489Z,28.20
2022-09-26T23:01:37.821Z,28.40
2022-09-26T23:04:05.292Z,28.40
2022-09-26T23:06:32.551Z,28.60
2022-09-26T23:08:59.499Z,28.50
2022-09-26T23:11:28.238Z,28.60
2022-09-26T23:13:56.358Z,28.40
2022-09-26T23:16:27.475Z,27.60
2022-09-26T23:18:54.772Z,27.70
2022-09-26T23:21:23.904Z,27.90
2022-09-26T23:23:53.292Z,27.90
2022-09-26T23:26:23.830Z,27.80
2022-09-26T23:28:52.132Z,27.60
2022-09-26T23:31:20.085Z,27.80
2022-09-26T23:33:47.231Z,28.10
2022-09-26T23:36:14.198Z,28.20
2022-09-26T23:38:41.832Z,28.30
2022-09-26T23:41:10.624Z,28.40
2022-09-26T23:43:38.563Z,28.70
2022-09-26T23:46:06.328Z,28.80
2022-09-26T23:48:34.133Z,28.40
2022-09-26T23:51:02.256Z,28.40
2022-09-26T23:53:29.918Z,28.40
2022-09-26T23:56:09.066Z,28.30
2022-09-26T23:58:37.379Z,28.20
